createdAt,value
2022-08-14T00:01:02.254Z,16.15
2022-08-14T00:03:36.292Z,9.80
2022-08-14T00:06:02.619Z,9.85
2022-08-14T00:08:49.009Z,11.43
2022-08-14T00:11:15.892Z,13.18
2022-08-14T00:13:43.355Z,13.68
2022-08-14T00:16:41.499Z,16.02
2022-08-14T00:19:06.967Z,11.95
2022-08-14T00:21:45.259Z,16.60
2022-08-14T00:24:11.557Z,13.43
2022-08-14T00:26:39.161Z,17.25
2022-08-14T00:29:05.958Z,12.20
2022-08-14T00:34:35.516Z,12.02
2022-08-14T00:36:59.250Z,11.95
2022-08-14T00:39:25.853Z,11.35
2022-08-14T00:41:52.226Z,10.15
2022-08-14T00:44:27.630Z,12.15
2022-08-14T00:46:59.802Z,10.73
2022-08-14T00:49:28.658Z,14.30
2022-08-14T00:51:56.586Z,9.88
2022-08-14T00:54:24.562Z,14.27
2022-08-14T00:56:51.557Z,10.93
2022-08-14T00:59:23.217Z,14.15
2022-08-14T01:01:51.310Z,10.02
2022-08-14T01:04:38.139Z,12.25
2022-08-14T01:07:08.258Z,12.27
2022-08-14T01:09:35.470Z,12.35
2022-08-14T01:12:03.186Z,13.07
2022-08-14T01:16:56.143Z,12.20
2022-08-14T01:19:41.313Z,15.50
2022-08-14T01:22:07.836Z,10.32
2022-08-14T01:24:39.142Z,11.82
2022-08-14T01:27:07.172Z,12.55
2022-08-14T01:29:58.223Z,11.43
2022-08-14T01:32:24.062Z,12.20
2022-08-14T01:35:18.573Z,14.02
2022-08-14T01:37:38.257Z,9.80
2022-08-14T01:40:11.120Z,10.30
2022-08-14T01:42:37.488Z,13.93
2022-08-14T01:45:11.503Z,11.60
2022-08-14T01:47:38.818Z,11.48
2022-08-14T01:50:06.346Z,10.35
2022-08-14T01:52:34.178Z,11.38
2022-08-14T01:55:18.936Z,11.07
2022-08-14T01:57:49.386Z,11.02
2022-08-14T02:00:28.464Z,12.65
2022-08-14T02:02:58.122Z,12.93
2022-08-14T02:05:25.168Z,9.63
2022-08-14T02:07:55.784Z,11.48
2022-08-14T02:10:26.220Z,13.00
2022-08-14T02:12:56.897Z,12.73
2022-08-14T02:15:23.700Z,14.23
2022-08-14T02:17:49.999Z,12.02
2022-08-14T02:20:17.785Z,13.48
2022-08-14T02:22:52.001Z,11.45
2022-08-14T02:25:20.791Z,12.52
2022-08-14T02:28:23.644Z,10.00
2022-08-14T02:30:38.461Z,10.50
2022-08-14T02:33:05.553Z,10.02
2022-08-14T02:35:32.735Z,10.20
2022-08-14T02:37:59.518Z,13.30
2022-08-14T02:40:32.131Z,12.82
2022-08-14T02:43:00.718Z,13.23
2022-08-14T02:45:38.027Z,11.93
2022-08-14T02:49:01.293Z,9.90
2022-08-14T02:50:57.159Z,11.05
2022-08-14T02:53:27.330Z,12.25
2022-08-14T02:55:56.295Z,13.77
2022-08-14T02:58:30.308Z,12.00
2022-08-14T03:00:58.036Z,10.85
2022-08-14T03:03:25.042Z,11.82
2022-08-14T03:05:52.063Z,11.13
2022-08-14T03:08:20.735Z,12.77
2022-08-14T03:10:48.925Z,13.32
2022-08-14T03:13:20.864Z,12.70
2022-08-14T03:15:55.833Z,11.43
2022-08-14T03:18:31.938Z,12.30
2022-08-14T03:20:58.883Z,11.75
2022-08-14T03:23:25.380Z,10.02
2022-08-14T03:25:52.137Z,12.13
2022-08-14T03:28:33.378Z,13.38
2022-08-14T03:31:00.182Z,13.05
2022-08-14T03:33:27.818Z,15.93
2022-08-14T03:36:05.346Z,13.73
2022-08-14T03:39:14.043Z,11.60
2022-08-14T03:41:33.180Z,11.90
2022-08-14T03:45:25.439Z,13.38
2022-08-14T03:46:54.721Z,12.63
2022-08-14T03:49:28.350Z,12.93
2022-08-14T03:51:55.070Z,11.60
2022-08-14T03:54:21.390Z,12.30
2022-08-14T03:56:50.158Z,14.55
2022-08-14T03:59:18.077Z,12.32
2022-08-14T04:01:54.078Z,10.30
2022-08-14T04:04:27.963Z,11.68
2022-08-14T04:06:54.710Z,9.98
2022-08-14T04:09:26.659Z,11.75
2022-08-14T04:11:53.321Z,11.57
2022-08-14T04:14:20.065Z,12.23
2022-08-14T04:16:47.329Z,13.93
2022-08-14T04:19:15.900Z,12.68
2022-08-14T04:22:03.277Z,12.40
2022-08-14T04:24:29.188Z,14.15
2022-08-14T04:26:55.685Z,10.93
2022-08-14T04:29:22.049Z,12.82
2022-08-14T04:32:59.062Z,13.75
2022-08-14T04:34:42.027Z,13.27
2022-08-14T04:37:27.066Z,15.30
2022-08-14T04:40:15.121Z,16.17
2022-08-14T04:43:00.171Z,14.02
2022-08-14T04:45:29.710Z,12.90
2022-08-14T04:48:39.048Z,12.48
2022-08-14T04:51:01.252Z,13.57
2022-08-14T04:53:34.790Z,13.75
2022-08-14T04:56:02.091Z,14.07
2022-08-14T04:58:32.235Z,13.43
2022-08-14T05:00:59.455Z,12.65
2022-08-14T05:03:26.215Z,16.13
2022-08-14T05:05:54.419Z,14.98
2022-08-14T05:08:32.277Z,13.15
2022-08-14T05:11:07.130Z,17.58
2022-08-14T05:14:16.177Z,14.13
2022-08-14T05:16:29.197Z,13.60
2022-08-14T05:19:19.125Z,15.80
2022-08-14T05:21:57.236Z,12.32
2022-08-14T05:24:27.773Z,13.27
2022-08-14T05:26:54.175Z,16.10
2022-08-14T05:29:21.622Z,13.45
2022-08-14T05:31:47.959Z,15.55
2022-08-14T05:34:14.308Z,13.27
2022-08-14T05:36:42.456Z,13.90
2022-08-14T05:39:08.760Z,11.57
2022-08-14T05:41:52.376Z,14.25
2022-08-14T05:44:20.331Z,14.45
2022-08-14T05:46:46.649Z,17.83
2022-08-14T05:49:13.767Z,15.77
2022-08-14T05:51:41.094Z,14.43
2022-08-14T05:54:10.185Z,14.70
2022-08-14T05:56:39.648Z,13.75
2022-08-14T05:59:05.968Z,14.70
2022-08-14T06:01:33.788Z,13.15
2022-08-14T06:04:00.256Z,11.93
2022-08-14T06:06:26.611Z,12.32
2022-08-14T06:08:52.909Z,13.23
2022-08-14T06:11:27.839Z,13.27
2022-08-14T06:13:57.219Z,12.93
2022-08-14T06:16:23.521Z,12.70
2022-08-14T06:18:52.693Z,13.95
2022-08-14T06:21:19.532Z,12.57
2022-08-14T06:23:48.984Z,13.18
2022-08-14T06:26:15.443Z,14.07
2022-08-14T06:28:45.665Z,13.10
2022-08-14T06:31:12.038Z,13.10
2022-08-14T06:35:03.055Z,14.13
2022-08-14T06:36:24.757Z,12.48
2022-08-14T06:38:51.048Z,14.98
2022-08-14T06:41:20.746Z,12.18
2022-08-14T06:44:02.499Z,14.55
2022-08-14T06:46:34.368Z,12.95
2022-08-14T06:49:03.442Z,11.80
2022-08-14T06:51:38.802Z,13.50
2022-08-14T06:54:11.075Z,14.23
2022-08-14T06:56:38.266Z,13.98
2022-08-14T06:59:05.250Z,11.57
2022-08-14T07:01:50.228Z,13.70
2022-08-14T07:04:41.521Z,9.43
2022-08-14T07:07:07.818Z,12.63
2022-08-14T07:09:43.573Z,11.32
2022-08-14T07:12:56.112Z,11.90
2022-08-14T07:15:03.176Z,13.65
2022-08-14T07:17:32.050Z,13.18
2022-08-14T07:20:00.544Z,11.30
2022-08-14T07:22:33.017Z,11.98
2022-08-14T07:25:13.669Z,10.65
2022-08-14T07:27:40.772Z,14.35
2022-08-14T07:30:09.226Z,14.48
2022-08-14T07:32:55.349Z,11.02
2022-08-14T07:35:21.663Z,13.07
2022-08-14T07:37:49.963Z,12.75
2022-08-14T07:40:27.459Z,12.52
2022-08-14T07:42:56.148Z,13.70
2022-08-14T07:45:22.459Z,10.98
2022-08-14T07:47:48.772Z,12.30
2022-08-14T07:50:16.625Z,10.25
2022-08-14T07:52:46.623Z,13.07
2022-08-14T07:55:13.059Z,9.50
2022-08-14T07:57:40.040Z,11.98
2022-08-14T08:00:09.570Z,12.00
2022-08-14T08:02:57.106Z,12.50
2022-08-14T08:05:26.722Z,13.73
2022-08-14T08:07:53.045Z,13.13
2022-08-14T08:11:01.493Z,13.20
2022-08-14T08:13:17.832Z,18.75
2022-08-14T08:15:44.725Z,12.45
2022-08-14T08:18:27.790Z,13.98
2022-08-14T08:20:59.637Z,11.45
2022-08-14T08:23:40.015Z,13.63
2022-08-14T08:26:09.724Z,15.20
2022-08-14T08:28:36.020Z,12.60
2022-08-14T08:31:02.319Z,12.07
2022-08-14T08:33:32.023Z,11.55
2022-08-14T08:35:58.704Z,13.38
2022-08-14T08:39:18.146Z,13.13
2022-08-14T08:41:11.729Z,12.68
2022-08-14T08:43:38.295Z,11.30
2022-08-14T08:46:04.626Z,10.35
2022-08-14T08:48:31.643Z,16.27
2022-08-14T08:51:02.692Z,11.02
2022-08-14T08:53:32.043Z,9.35
2022-08-14T08:55:58.836Z,11.27
2022-08-14T08:58:25.662Z,11.02
2022-08-14T09:00:54.046Z,9.73
2022-08-14T09:03:21.487Z,10.65
2022-08-14T09:05:47.809Z,11.73
2022-08-14T09:10:59.348Z,14.52
2022-08-14T09:13:26.818Z,13.48
2022-08-14T09:15:56.811Z,11.93
2022-08-14T09:18:23.114Z,10.30
2022-08-14T09:20:49.500Z,10.52
2022-08-14T09:23:16.834Z,11.43
2022-08-14T09:26:00.464Z,8.65
2022-08-14T09:28:28.031Z,11.13
2022-08-14T09:30:54.847Z,8.13
2022-08-14T09:33:22.843Z,9.18
2022-08-14T09:35:49.705Z,8.55
2022-08-14T09:38:26.178Z,9.38
2022-08-14T09:40:53.708Z,9.73
2022-08-14T09:43:22.363Z,7.93
2022-08-14T09:45:53.511Z,10.60
2022-08-14T09:48:20.229Z,9.98
2022-08-14T09:50:54.086Z,8.73
2022-08-14T09:53:20.503Z,8.70
2022-08-14T09:55:47.074Z,8.67
2022-08-14T09:58:19.974Z,8.40
2022-08-14T10:00:49.295Z,8.35
2022-08-14T10:03:15.654Z,6.18
2022-08-14T10:05:42.029Z,7.63
2022-08-14T10:08:14.920Z,7.82
2022-08-14T10:10:41.782Z,7.80
2022-08-14T10:13:08.123Z,6.37
2022-08-14T10:15:35.707Z,6.55
2022-08-14T10:18:01.991Z,7.07
2022-08-14T10:20:40.670Z,5.63
2022-08-14T10:23:13.573Z,4.40
2022-08-14T10:25:43.471Z,10.77
2022-08-14T10:28:39.379Z,8.77
2022-08-14T10:30:56.056Z,4.72
2022-08-14T10:33:22.353Z,6.60
2022-08-14T10:35:48.810Z,4.93
2022-08-14T10:38:15.127Z,4.90
2022-08-14T10:40:52.225Z,5.30
2022-08-14T10:43:25.503Z,5.15
2022-08-14T10:45:59.640Z,5.27
2022-08-14T10:51:08.455Z,4.90
2022-08-14T10:53:37.026Z,8.48
2022-08-14T10:56:06.985Z,5.68
2022-08-14T10:58:48.919Z,9.15
2022-08-14T11:01:15.415Z,6.72
2022-08-14T11:03:56.979Z,5.38
2022-08-14T11:06:24.764Z,5.95
2022-08-14T11:08:52.044Z,6.30
2022-08-14T11:11:21.384Z,5.47
2022-08-14T11:13:48.555Z,6.40
2022-08-14T11:16:18.216Z,5.63
2022-08-14T11:18:46.223Z,5.53
2022-08-14T11:21:18.552Z,4.45
2022-08-14T11:23:49.250Z,7.28
2022-08-14T11:26:19.972Z,6.43
2022-08-14T11:28:48.709Z,6.18
2022-08-14T11:31:16.686Z,6.38
2022-08-14T11:33:43.111Z,5.82
2022-08-14T11:36:17.738Z,5.65
2022-08-14T11:38:48.204Z,8.18
2022-08-14T11:41:17.154Z,6.65
2022-08-14T11:43:46.866Z,6.72
2022-08-14T11:46:30.451Z,7.95
2022-08-14T11:49:05.423Z,4.82
2022-08-14T11:51:36.100Z,5.40
2022-08-14T11:54:19.631Z,4.63
2022-08-14T11:56:49.811Z,4.15
2022-08-14T11:59:17.918Z,4.85
2022-08-14T12:01:46.212Z,5.28
2022-08-14T12:04:32.209Z,8.13
2022-08-14T12:07:01.064Z,8.40
2022-08-14T12:09:27.912Z,8.88
2022-08-14T12:11:54.210Z,7.20
2022-08-14T12:14:30.211Z,7.18
2022-08-14T12:17:01.936Z,8.43
2022-08-14T12:19:28.622Z,8.35
2022-08-14T12:21:59.897Z,7.88
2022-08-14T12:24:35.737Z,7.03
2022-08-14T12:27:03.407Z,7.55
2022-08-14T12:29:29.748Z,7.57
2022-08-14T12:31:58.445Z,8.15
2022-08-14T12:34:26.129Z,5.82
2022-08-14T12:36:52.433Z,7.10
2022-08-14T12:39:18.778Z,11.02
2022-08-14T12:41:45.796Z,8.43
2022-08-14T12:44:21.504Z,7.30
2022-08-14T12:46:49.061Z,6.40
2022-08-14T12:49:16.961Z,5.68
2022-08-14T12:51:44.054Z,8.05
2022-08-14T12:54:18.565Z,9.93
2022-08-14T12:56:54.182Z,5.78
2022-08-14T12:59:20.620Z,10.80
2022-08-14T13:04:31.171Z,6.68
2022-08-14T13:06:57.450Z,6.55
2022-08-14T13:09:35.814Z,8.70
2022-08-14T13:12:34.833Z,6.45
2022-08-14T13:14:52.768Z,8.93
2022-08-14T13:17:18.994Z,7.43
2022-08-14T13:19:45.622Z,7.97
2022-08-14T13:22:28.879Z,21.20
2022-08-14T13:24:58.274Z,6.43
2022-08-14T13:27:24.650Z,6.18
2022-08-14T13:29:53.762Z,8.15
2022-08-14T13:32:20.059Z,7.05
2022-08-14T13:34:46.859Z,7.68
2022-08-14T13:37:14.171Z,8.13
2022-08-14T13:39:40.639Z,7.35
2022-08-14T13:42:13.423Z,7.72
2022-08-14T13:44:42.612Z,7.40
2022-08-14T13:47:09.527Z,6.50
2022-08-14T13:49:37.406Z,6.80
2022-08-14T13:52:04.245Z,5.57
2022-08-14T13:59:37.992Z,6.15
2022-08-14T14:02:05.069Z,6.45
2022-08-14T14:04:31.474Z,6.53
2022-08-14T14:06:58.711Z,5.85
2022-08-14T14:09:25.434Z,7.20
2022-08-14T14:11:52.794Z,6.00
2022-08-14T14:14:29.789Z,5.80
2022-08-14T14:17:05.757Z,5.80
2022-08-14T14:22:01.530Z,5.82
2022-08-14T14:24:34.547Z,5.90
2022-08-14T14:27:09.686Z,7.05
2022-08-14T14:29:50.728Z,12.80
2022-08-14T14:32:22.289Z,7.05
2022-08-14T14:34:48.578Z,6.50
2022-08-14T14:37:15.391Z,8.48
2022-08-14T14:40:52.591Z,7.50
2022-08-14T14:42:32.060Z,8.60
2022-08-14T14:44:58.936Z,17.42
2022-08-14T14:47:25.476Z,8.18
2022-08-14T14:49:55.220Z,8.50
2022-08-14T14:52:26.891Z,8.00
2022-08-14T14:54:54.238Z,7.05
2022-08-14T14:57:21.057Z,7.70
2022-08-14T14:59:47.881Z,7.72
2022-08-14T15:02:16.486Z,6.70
2022-08-14T15:04:44.315Z,6.10
2022-08-14T15:07:10.678Z,9.63
2022-08-14T15:09:38.978Z,9.32
2022-08-14T15:12:34.292Z,6.18
2022-08-14T15:14:55.328Z,10.37
2022-08-14T15:17:23.785Z,9.95
2022-08-14T15:19:56.364Z,10.43
2022-08-14T15:22:25.197Z,8.32
2022-08-14T15:24:51.746Z,6.43
2022-08-14T15:27:26.298Z,8.63
2022-08-14T15:29:53.207Z,7.68
2022-08-14T15:32:23.027Z,8.93
2022-08-14T15:34:51.801Z,9.70
2022-08-14T15:37:19.395Z,11.25
2022-08-14T15:39:45.766Z,6.82
2022-08-14T15:42:15.794Z,7.25
2022-08-14T15:44:44.720Z,8.23
2022-08-14T15:47:28.167Z,7.50
2022-08-14T15:49:59.192Z,6.72
2022-08-14T15:52:32.996Z,7.18
2022-08-14T15:55:02.792Z,6.25
2022-08-14T15:57:30.655Z,7.97
2022-08-14T16:00:39.963Z,8.40
2022-08-14T16:03:03.082Z,8.60
2022-08-14T16:05:29.401Z,7.50
2022-08-14T16:08:05.007Z,8.02
2022-08-14T16:10:51.207Z,9.60
2022-08-14T16:13:22.925Z,7.95
2022-08-14T16:16:49.204Z,5.20
2022-08-14T16:18:51.370Z,5.57
2022-08-14T16:21:17.662Z,5.55
2022-08-14T16:23:46.960Z,6.60
2022-08-14T16:26:20.401Z,7.97
2022-08-14T16:29:02.516Z,8.55
2022-08-14T16:34:46.802Z,10.50
2022-08-14T16:37:03.090Z,11.38
2022-08-14T16:39:29.469Z,7.50
2022-08-14T16:41:59.222Z,6.97
2022-08-14T16:44:32.013Z,5.70
2022-08-14T16:47:00.250Z,6.00
2022-08-14T16:50:02.941Z,7.28
2022-08-14T16:52:25.434Z,7.70
2022-08-14T16:55:00.074Z,5.43
2022-08-14T16:57:26.406Z,7.70
2022-08-14T16:59:58.894Z,8.88
2022-08-14T17:02:25.499Z,9.85
2022-08-14T17:04:52.726Z,7.07
2022-08-14T17:07:19.957Z,7.35
2022-08-14T17:09:53.077Z,13.75
2022-08-14T17:12:33.989Z,7.43
2022-08-14T17:15:09.867Z,9.73
2022-08-14T17:17:37.327Z,10.85
2022-08-14T17:20:25.049Z,8.27
2022-08-14T17:22:51.800Z,6.27
2022-08-14T17:25:18.256Z,6.78
2022-08-14T17:27:49.301Z,6.82
2022-08-14T17:30:31.819Z,8.65
2022-08-14T17:33:03.319Z,8.07
2022-08-14T17:35:58.652Z,7.40
2022-08-14T17:38:38.735Z,7.13
2022-08-14T17:41:21.866Z,10.43
2022-08-14T17:46:23.824Z,12.95
2022-08-14T17:49:14.295Z,6.78
2022-08-14T17:51:38.530Z,8.85
2022-08-14T17:54:22.792Z,6.80
2022-08-14T17:57:01.362Z,10.50
2022-08-14T17:59:27.659Z,10.07
2022-08-14T18:01:54.614Z,7.25
2022-08-14T18:04:28.797Z,8.32
2022-08-14T18:07:16.114Z,9.02
2022-08-14T18:09:57.201Z,6.90
2022-08-14T18:12:31.985Z,7.85
2022-08-14T18:15:01.264Z,10.10
2022-08-14T18:17:35.640Z,7.85
2022-08-14T18:20:02.300Z,8.38
2022-08-14T18:22:49.654Z,9.00
2022-08-14T18:25:19.199Z,10.20
2022-08-14T18:27:49.138Z,10.13
2022-08-14T18:30:31.987Z,7.60
2022-08-14T18:33:04.106Z,13.88
2022-08-14T18:35:45.638Z,10.60
2022-08-14T18:38:26.429Z,9.85
2022-08-14T18:40:58.998Z,8.02
2022-08-14T18:43:25.311Z,7.43
2022-08-14T18:45:52.131Z,7.07
2022-08-14T18:48:19.063Z,10.90
2022-08-14T18:50:45.644Z,8.20
2022-08-14T18:53:12.795Z,14.53
2022-08-14T18:55:53.135Z,8.85
2022-08-14T18:58:29.597Z,8.15
2022-08-14T19:00:58.923Z,10.63
2022-08-14T19:03:29.107Z,8.45
2022-08-14T19:05:55.400Z,7.03
2022-08-14T19:08:25.215Z,10.60
2022-08-14T19:10:51.697Z,11.00
2022-08-14T19:13:20.402Z,10.32
2022-08-14T19:15:56.563Z,11.82
2022-08-14T19:18:26.729Z,7.97
2022-08-14T19:20:55.336Z,8.50
2022-08-14T19:23:43.886Z,8.68
2022-08-14T19:26:36.820Z,7.28
2022-08-14T19:28:58.377Z,9.02
2022-08-14T19:34:08.999Z,9.30
2022-08-14T19:36:55.454Z,10.02
2022-08-14T19:39:21.967Z,7.57
2022-08-14T19:41:51.787Z,7.30
2022-08-14T19:44:19.184Z,9.07
2022-08-14T19:46:59.711Z,11.95
2022-08-14T19:50:08.617Z,8.52
2022-08-14T19:52:17.574Z,11.85
2022-08-14T19:54:47.358Z,7.97
2022-08-14T19:57:13.656Z,9.02
2022-08-14T19:59:57.255Z,11.05
2022-08-14T20:02:25.156Z,11.48
2022-08-14T20:04:57.675Z,11.90
2022-08-14T20:11:05.840Z,10.95
2022-08-14T20:12:57.753Z,10.18
2022-08-14T20:15:24.516Z,9.85
2022-08-14T20:17:52.680Z,12.65
2022-08-14T20:20:21.028Z,9.38
2022-08-14T20:22:58.653Z,9.60
2022-08-14T20:25:28.285Z,9.60
2022-08-14T20:27:59.895Z,9.07
2022-08-14T20:30:33.037Z,8.82
2022-08-14T20:33:01.471Z,10.50
2022-08-14T20:35:35.210Z,10.38
2022-08-14T20:38:30.252Z,10.77
2022-08-14T20:40:50.829Z,8.73
2022-08-14T20:43:35.759Z,7.90
2022-08-14T21:00:33.784Z,8.13
2022-08-14T21:03:00.866Z,8.60
2022-08-14T21:05:33.735Z,9.35
2022-08-14T21:08:08.471Z,11.65
2022-08-14T21:10:47.064Z,11.32
2022-08-14T21:13:52.611Z,12.75
2022-08-14T21:16:03.710Z,12.07
2022-08-14T21:18:30.605Z,8.77
2022-08-14T21:20:58.119Z,10.73
2022-08-14T21:23:24.447Z,9.27
2022-08-14T21:25:53.896Z,10.15
2022-08-14T21:28:30.632Z,11.98
2022-08-14T21:31:01.901Z,8.32
2022-08-14T21:33:28.830Z,11.60
2022-08-14T21:35:55.822Z,10.98
2022-08-14T21:38:22.250Z,10.57
2022-08-14T21:41:01.082Z,9.25
2022-08-14T21:43:27.379Z,8.68
2022-08-14T21:45:57.553Z,9.60
2022-08-14T21:48:25.216Z,11.68
2022-08-14T21:51:01.015Z,9.10
2022-08-14T21:53:58.358Z,14.02
2022-08-14T21:56:37.322Z,9.40
2022-08-14T21:59:05.949Z,9.52
2022-08-14T22:02:01.218Z,9.98
2022-08-14T22:04:33.637Z,8.45
2022-08-14T22:07:01.039Z,9.95
2022-08-14T22:09:36.137Z,9.40
2022-08-14T22:12:03.208Z,11.75
2022-08-14T22:14:33.312Z,12.20
2022-08-14T22:17:12.969Z,10.90
2022-08-14T22:19:47.310Z,9.45
2022-08-14T22:22:21.512Z,11.13
2022-08-14T22:24:54.086Z,8.75
2022-08-14T22:27:27.348Z,10.57
2022-08-14T22:29:58.627Z,12.95
2022-08-14T22:32:35.183Z,9.85
2022-08-14T22:35:11.307Z,9.95
2022-08-14T22:37:39.582Z,10.93
2022-08-14T22:40:54.605Z,14.13
2022-08-14T22:43:00.399Z,10.38
2022-08-14T22:45:36.522Z,9.27
2022-08-14T22:48:05.037Z,9.68
2022-08-14T22:50:33.563Z,11.18
2022-08-14T22:53:00.252Z,10.85
2022-08-14T22:55:27.326Z,11.57
2022-08-14T22:57:53.546Z,11.98
2022-08-14T23:00:20.420Z,10.07
2022-08-14T23:02:57.248Z,11.40
2022-08-14T23:05:24.329Z,14.35
2022-08-14T23:08:56.466Z,16.05
2022-08-14T23:10:52.941Z,11.45
2022-08-14T23:13:20.108Z,10.07
2022-08-14T23:15:47.125Z,18.58
2022-08-14T23:18:13.461Z,9.82
2022-08-14T23:20:42.301Z,11.60
2022-08-14T23:23:10.680Z,9.77
2022-08-14T23:25:57.978Z,10.88
2022-08-14T23:28:34.445Z,10.70
2022-08-14T23:31:10.145Z,14.97
2022-08-14T23:33:36.451Z,10.57
2022-08-14T23:36:32.783Z,11.15
2022-08-14T23:39:00.183Z,10.57
2022-08-14T23:41:26.496Z,10.05
2022-08-14T23:44:12.783Z,10.23
2022-08-14T23:46:39.588Z,9.35
2022-08-14T23:49:05.963Z,11.95
2022-08-14T23:51:36.325Z,10.30
2022-08-14T23:54:02.989Z,10.65
2022-08-14T23:56:31.832Z,10.68
2022-08-14T23:58:58.720Z,11.18
